Tiempo atmosférico en la estación meteorológica de Ordizia, Gipuzkoa (290 m.)



Fecha
DESCASC
Temp. máxima en grados centígrados (hora)
DESCASC
Temp. mínima en grados centígrados (hora)
DESCASC
Temp. media en grados centígrados
DESCASC
Racha de viento máxima en m/sg (hora)
DESCASC
Velocidad máxima media en intervalos de 10 minutos(hora)
DESCASC
Precipitaciones diarias en mm
DESCASC
Precipitaciones de 00:00 a 06:00 en mm
DESCASC
Precipitaciones de 06:00 a 12:00 en mm
DESCASC
Precipitaciones de 12:00 a 18:00 en mm
DESCASC
Precipitaciones de 18:00 a 24:00 en mm
DESCASC
25-04-2019 16.9 (15:50) 8.8 (07:00) 12.8 15.56 (12:30) 9.17 (16:50) 3.2 3 0 0.2 0
24-04-2019 13.9 (16:30) 8.2 (04:00) 11 21.67 (14:50) 12.5 (14:00) 9.2 0 0 0.4 8.8
23-04-2019 18.2 (13:50) 9.5 (23:20) 13.9 12.22 (16:00) 6.67 (16:10) 1.8 0 0 0.8 1
22-04-2019 22 (16:10) 8.7 (00:00) 15.3 10 (18:40) 7.22 (18:40) 0 0 0 0 0
21-04-2019 15.7 (14:10) 6.4 (00:00) 11 6.11 (18:50) 3.61 (16:20) 0 0 0 0 0
20-04-2019 19.9 (14:30) 8.4 (00:00) 14.1 8.33 (15:50) 5 (16:50) 0 0 0 0 0
19-04-2019 20.7 (17:10) 10.3 (00:00) 15.5 8.33 (17:50) 4.44 (17:50) 0 0 0 0 0
18-04-2019 17.9 (00:10) 11.7 (00:00) 14.8 18.89 (01:20) 10.28 (01:10) 0 0 0 0 0
17-04-2019 20.5 (18:40) 14 (00:00) 17.3 21.11 (14:00) 11.67 (04:20) 0 0 0 0 0
16-04-2019 19.5 (16:10) 8.1 (00:00) 13.8 6.94 (23:59) 3.61 (15:30) 1.2 1.2 0 0 0
15-04-2019 22.4 (16:40) 9.1 (00:00) 15.8 18.06 (18:10) 10.28 (18:00) 27.6 0 0 2.4 25.2
14-04-2019 19.5 (16:20) 7.6 (00:00) 13.5 6.67 (16:40) 4.44 (13:40) 0 0 0 0 0
13-04-2019 20.9 (16:00) 2.2 (00:00) 11.5 6.39 (16:40) 3.61 (16:50) 0 0 0 0 0
12-04-2019 15.3 (17:00) 6.2 (00:00) 10.8 8.61 (11:30) 3.61 (15:40) 0.6 0.4 0 0.2 0
11-04-2019 11.2 (17:50) 6 (00:00) 8.6 6.39 (17:00) 2.78 (17:00) 14.4 7 4.2 2.2 1
10-04-2019 12.4 (16:40) 4.7 (00:00) 8.5 8.06 (18:30) 3.89 (18:30) 12 0 3.4 4.6 4
09-04-2019 18.5 (16:30) 3.2 (00:00) 10.9 10 (12:50) 5.83 (12:50) 6.2 0 0 0 6.2
08-04-2019 12.2 (17:10) 6.2 (00:00) 9.2 7.5 (04:50) 4.17 (06:00) 10.8 0.2 3.4 7.2 0
07-04-2019 14 (17:10) 5.4 (00:00) 9.7 9.17 (13:10) 5.28 (12:50) 0.2 0 0.2 0 0
06-04-2019 14.4 (15:20) 4.2 (00:00) 9.3 13.89 (14:20) 7.5 (14:20) 3.2 0 0 0 3.2
05-04-2019 13.8 (14:00) 5.5 (00:00) 9.7 15 (06:40) 9.72 (16:20) 13.8 0 0 9.8 4
04-04-2019 15.2 (17:10) 1.7 (00:00) 8.4 10.83 (18:40) 5.56 (18:40) 2.8 2.2 0.6 0 0
03-04-2019 10 (14:10) 2.4 (00:00) 6.2 16.39 (21:30) 6.67 (20:10) 7.4 1.2 2.6 0.8 2.8
02-04-2019 16.2 (15:00) 8.1 (00:00) 12.2 8.89 (15:50) 4.44 (15:50) 1.4 0 0 0 1.4
01-04-2019 16.4 (16:20) 8.4 (00:00) 12.4 6.39 (14:10) 3.89 (14:10) 2.8 2.6 0.2 0 0
31-03-2019 21.2 (16:30) 7.4 (00:00) 14.3 6.67 (04:00) 3.61 (15:50) 0 0 0 0 0
30-03-2019 20.8 (15:20) 10.7 (00:00) 15.7 13.61 (00:10) 6.11 (12:00) 0 0 0 0 0
29-03-2019 20.4 (14:50) 1.7 (00:00) 11 10.83 (11:40) 7.22 (17:30) 0 0 0 0 0
28-03-2019 15.9 (14:50) 4.7 (00:00) 10.3 8.33 (13:20) 4.72 (13:40) 0 0 0 0 0
27-03-2019 15.5 (14:50) 1 (00:00) 8.3 7.78 (13:20) 3.89 (11:50) 0 0 0 0 0

Gráficas

Temp. máximas Temp. mínimas Temp. medias Precipitaciones Rachas de viento máximas Velocidades máximas media en intervalos de 10 minutos

Datos horarios

Fecha y hora oficial Temperatura (ºC) Velocidad del viento (km/h) Dirección del viento Racha (km/h) Dirección de racha Precipitación (mm) Presión (hPa) Tendencia (hPa) Humedad (%)
2019-04-25 23:00:00 11.6 12 Sudoeste 34 Sudoeste 0 -- -- 58
2019-04-25 22:00:00 13.1 12 Oeste 37 Oeste 0 -- -- 53
2019-04-25 21:00:00 13.6 17 Sudoeste 44 Oeste 0 -- -- 50
2019-04-25 20:00:00 14.7 20 Oeste 42 Sudoeste 0 -- -- 47
2019-04-25 19:00:00 15.9 23 Oeste 48 Sudoeste 0 -- -- 49
2019-04-25 18:00:00 16.3 11 Sudoeste 53 Oeste 0 -- -- 45
2019-04-25 17:00:00 15.8 28 Oeste 54 Sudoeste 0 -- -- 46
2019-04-25 16:00:00 16.9 15 Sudoeste 51 Oeste 0 -- -- 47
2019-04-25 15:00:00 15.7 23 Oeste 41 Sur 0 -- -- 44
2019-04-25 14:00:00 14.4 18 Sudoeste 50 Oeste 0.2 -- -- 47
2019-04-25 13:00:00 13.6 20 Oeste 56 Oeste 0 -- -- 51
2019-04-25 12:00:00 12.1 17 Oeste 40 Sudoeste 0 -- -- 58
2019-04-25 11:00:00 11.6 17 Sudoeste 38 Sudoeste 0 -- -- 58
2019-04-25 10:00:00 11.2 14 Oeste 27 Oeste 0 -- -- 62
2019-04-25 09:00:00 12.3 13 Sur 27 Sudeste 0 -- -- 64
2019-04-25 08:00:00 9.8 8 Sudoeste 21 Sudoeste 0 -- -- 72
2019-04-25 07:00:00 8.8 5 Sur 17 Sudoeste 0 -- -- 75
2019-04-25 06:00:00 9.5 9 Sudoeste 23 Sur 0 -- -- 80
2019-04-25 05:00:00 9.6 6 Nordeste 15 Este 0 -- -- 85
2019-04-25 04:00:00 9.9 7 Oeste 27 Oeste 0.8 -- -- 90
2019-04-25 03:00:00 10 16 Noroeste 29 Oeste 1 -- -- 95
2019-04-25 02:00:00 10.6 4 Noroeste 15 Noroeste 1.2 -- -- 88
2019-04-25 01:00:00 11.6 6 Sudoeste 23 Este 0 -- -- 79
2019-04-25 00:00:00 11.4 6 Sudeste 21 Sur 0 -- -- 81
2019-04-24 23:00:00 11.3 6 Sudeste 27 Noroeste 0 -- -- 82
2019-04-24 22:00:00 10.4 10 Oeste 24 Sudoeste 1 -- -- 89
2019-04-24 21:00:00 10.2 8 Norte 29 Sudoeste 3.6 -- -- 92
2019-04-24 20:00:00 11.1 26 Sudoeste 57 Este 3.6 -- -- 87
2019-04-24 19:00:00 12 33 Sur 65 Sudeste 0.6 -- -- 77
2019-04-24 18:00:00 12.6 30 Sudeste 65 Sudeste 0.4 -- -- 72
2019-04-24 17:00:00 13.5 30 Sudeste 59 Este 0 -- -- 61
2019-04-24 16:00:00 12.8 20 Sudeste 55 Este 0 -- -- 62
2019-04-24 15:00:00 13.4 32 Sudeste 78 Sudeste 0 -- -- 58
2019-04-24 14:00:00 12.4 45 Sudeste 75 Sudeste 0 -- -- 58
2019-04-24 13:00:00 12.9 29 Sur 55 Sudoeste 0 -- -- 55
2019-04-24 12:00:00 11 23 Sudeste 56 Sudeste 0 -- -- 62
2019-04-24 11:00:00 10.9 18 Sur 40 Sudeste 0 -- -- 61
2019-04-24 10:00:00 10.6 13 Sudeste 30 Sudeste 0 -- -- 65
2019-04-24 09:00:00 9.9 11 Oeste 22 Sudoeste 0 -- -- 64
2019-04-24 08:00:00 8.5 7 Sur 15 Sur 0 -- -- 71
2019-04-24 07:00:00 8.5 4 Sudeste 12 Sudeste 0 -- -- 71
2019-04-24 06:00:00 8.5 5 Oeste 22 Oeste 0 -- -- 76
2019-04-24 05:00:00 8.2 6 Oeste 11 Noroeste 0 -- -- 88
2019-04-24 04:00:00 8.2 3 Oeste 6 Oeste 0 -- -- 93
2019-04-24 03:00:00 8.7 3 Norte 4 Norte 0 -- -- 88
2019-04-24 02:00:00 8.8 0 Calma 14 Noroeste 0 -- -- 85
2019-04-24 01:00:00 9.3 3 Noroeste 18 Noroeste 0 -- -- 81
2019-04-24 00:00:00 10.2 3 Oeste 9 Sudoeste 0 -- -- 76
2019-04-23 23:00:00 9.7 4 Sudeste 11 Oeste 0 -- -- 85
2019-04-23 22:00:00 10.3 3 Sudeste 15 Noroeste 0 -- -- 77
2019-04-23 21:00:00 10.1 4 Nordeste 12 Noroeste 0.6 -- -- 79
2019-04-23 20:00:00 11.6 11 Oeste 39 Oeste 0.4 -- -- 72
2019-04-23 19:00:00 13.2 4 Noroeste 10 Noroeste 0 -- -- 76
2019-04-23 18:00:00 12.4 5 Noroeste 20 Oeste 0.2 -- -- 89
2019-04-23 17:00:00 12.4 15 Oeste 38 Oeste 0.6 -- -- 80
2019-04-23 16:00:00 16.3 21 Oeste 44 Noroeste 0 -- -- 61
2019-04-23 15:00:00 17.2 10 Sudoeste 33 Sudeste 0 -- -- 59
2019-04-23 14:00:00 18.1 11 Sudeste 24 Sudeste 0 -- -- 58
2019-04-23 13:00:00 16.8 6 Noroeste 22 Sudeste 0 -- -- 60
2019-04-23 12:00:00 16 13 Sudeste 28 Sudeste 0 -- -- 66
2019-04-23 11:00:00 15.9 5 Sudeste 21 Sudoeste 0 -- -- 65
2019-04-23 10:00:00 15.6 7 Sudoeste 23 Oeste 0 -- -- 68
2019-04-23 09:00:00 14.5 13 Oeste 26 Oeste 0 -- -- 67
2019-04-23 08:00:00 14.2 3 Noroeste 20 Oeste 0 -- -- 67
2019-04-23 07:00:00 13.6 10 Oeste 21 Oeste 0 -- -- 69
2019-04-23 06:00:00 14.2 8 Oeste 27 Sudeste 0 -- -- 66
2019-04-23 05:00:00 14.6 8 Noroeste 17 Oeste 0 -- -- 64
2019-04-23 04:00:00 15 10 Sudeste 36 Sudeste 0 -- -- 63
2019-04-23 03:00:00 15.2 7 Este 21 Este 0 -- -- 61
2019-04-23 02:00:00 15.5 5 Noroeste 24 Sudeste 0 -- -- 59
2019-04-23 01:00:00 15.9 10 Noroeste 19 Oeste 0 -- -- 57
2019-04-23 00:00:00 16.4 9 Este 33 Sudeste 0 -- -- 56
2019-04-22 23:00:00 17 14 Sudeste 31 Sudeste 0 -- -- 52
2019-04-22 22:00:00 17.3 14 Sudeste 34 Este 0 -- -- 53
2019-04-22 21:00:00 17.8 17 Sudeste 34 Sudeste 0 -- -- 52
2019-04-22 20:00:00 18.3 16 Sudeste 24 Sudeste 0 -- -- 50
2019-04-22 19:00:00 19.4 9 Sudeste 36 Sudeste 0 -- -- 50
2019-04-22 18:00:00 20.6 13 Sudeste 27 Sudeste 0 -- -- 47
2019-04-22 17:00:00 21 16 Sur 35 Sur 0 -- -- 45
2019-04-22 16:00:00 21.6 13 Sur 24 Sudoeste 0 -- -- 41
2019-04-22 15:00:00 20.1 8 Oeste 21 Oeste 0 -- -- 52
2019-04-22 14:00:00 20 7 Oeste 15 Oeste 0 -- -- 50
2019-04-22 13:00:00 19.2 3 Sur 9 Sudeste 0 -- -- 56
2019-04-22 12:00:00 16.7 5 Sudeste 13 Sudeste 0 -- -- 74
2019-04-22 11:00:00 14 5 Sudeste 10 Sudeste 0 -- -- 83
2019-04-22 10:00:00 10.3 3 Este 6 Sudeste 0 -- -- 100
2019-04-22 09:00:00 8.9 2 Norte 6 Norte 0 -- -- 99
2019-04-22 08:00:00 8.8 2 Sudoeste 5 Este 0 -- -- 99
2019-04-22 07:00:00 9.2 4 Norte 6 Noroeste 0 -- -- 98
2019-04-22 06:00:00 9.5 0 Calma 4 Oeste 0 -- -- 97
2019-04-22 05:00:00 9.8 2 Sudoeste 3 Sudoeste 0 -- -- 97
2019-04-22 04:00:00 10.1 -- -- -- -- 0 -- -- 96
2019-04-22 03:00:00 10.4 0 Calma 5 Noroeste 0 -- -- 94
2019-04-22 02:00:00 10.5 2 Nordeste 6 Este 0 -- -- 93
2019-04-22 01:00:00 10.7 3 Oeste 4 Noroeste 0 -- -- 90
2019-04-22 00:00:00 11.1 3 Sudeste 4 Este 0 -- -- 90
2019-04-21 23:00:00 11.3 2 Este 5 Este 0 -- -- 88
2019-04-21 22:00:00 11.8 2 Noroeste 5 Norte 0 -- -- 86
2019-04-21 21:00:00 12.5 3 Nordeste 11 Este 0 -- -- 82
2019-04-21 20:00:00 13.1 3 Oeste 13 Este 0 -- -- 79
2019-04-21 19:00:00 13.7 7 Nordeste 22 Este 0 -- -- 74
2019-04-21 18:00:00 15.4 8 Sudeste 19 Este 0 -- -- 69
2019-04-21 17:00:00 15.2 10 Este 22 Este 0 -- -- 70
2019-04-21 16:00:00 15.3 12 Este 22 Este 0 -- -- 67
2019-04-21 15:00:00 15.5 7 Este 18 Este 0 -- -- 67
2019-04-21 14:00:00 15.5 5 Sudeste 13 Sudeste 0 -- -- 63
2019-04-21 13:00:00 14.6 4 Sudeste 10 Sudeste 0 -- -- 71
2019-04-21 12:00:00 12.8 5 Sudeste 8 Este 0 -- -- 78
2019-04-21 11:00:00 11 3 Sudeste 7 Sudeste 0 -- -- 85
2019-04-21 10:00:00 9.2 2 Sudeste 9 Este 0 -- -- 96
2019-04-21 09:00:00 7.2 0 Calma 9 Este 0 -- -- 98
2019-04-21 08:00:00 6.4 2 Sudoeste 7 Noroeste 0 -- -- 98
2019-04-21 07:00:00 6.6 0 Calma 6 Oeste 0 -- -- 97
2019-04-21 06:00:00 7.1 4 Oeste 6 Sudoeste 0 -- -- 95
2019-04-21 05:00:00 7.5 5 Oeste 8 Oeste 0 -- -- 94
2019-04-21 04:00:00 8 4 Sudoeste 10 Sudoeste 0 -- -- 92
2019-04-21 03:00:00 9 6 Oeste 9 Oeste 0 -- -- 87
2019-04-21 02:00:00 9.3 6 Este 15 Sudeste 0 -- -- 88
2019-04-21 01:00:00 10.9 4 Sudeste 12 Noroeste 0 -- -- 81
2019-04-21 00:00:00 11.2 2 Sur 6 Norte 0 -- -- 80
2019-04-20 23:00:00 12.5 3 Nordeste 8 Nordeste 0 -- -- 76
2019-04-20 22:00:00 13.5 0 Calma 8 Nordeste 0 -- -- 75
2019-04-20 21:00:00 14.5 3 Noroeste 14 Este 0 -- -- 74
2019-04-20 20:00:00 17.1 4 Oeste 16 Nordeste 0 -- -- 64
2019-04-20 19:00:00 17.7 5 Nordeste 23 Este 0 -- -- 62
2019-04-20 18:00:00 18.3 13 Este 30 Este 0 -- -- 59
2019-04-20 17:00:00 18.7 16 Este 29 Sudeste 0 -- -- 61
2019-04-20 16:00:00 19.4 17 Este 30 Este 0 -- -- 60
2019-04-20 15:00:00 19.3 13 Este 28 Este 0 -- -- 59
2019-04-20 14:00:00 19.5 14 Este 27 Sudeste 0 -- -- 62
2019-04-20 13:00:00 19.1 12 Sudeste 21 Este 0 -- -- 63
2019-04-20 12:00:00 18.1 4 Sudoeste 13 Sudeste 0 -- -- 64
2019-04-20 11:00:00 16.3 7 Sudeste 13 Sudeste 0 -- -- 74
2019-04-20 10:00:00 13.2 4 Sudeste 9 Sudeste 0 -- -- 87
2019-04-20 09:00:00 10.2 2 Sur 5 Sudeste 0 -- -- 99
2019-04-20 08:00:00 8.4 2 Sudoeste 5 Noroeste 0 -- -- 98
2019-04-20 07:00:00 9 0 Calma 3 Norte 0 -- -- 98
2019-04-20 06:00:00 8.9 0 Calma 4 Noroeste 0 -- -- 97
2019-04-20 05:00:00 9.2 0 Calma 6 Sudoeste 0 -- -- 95
2019-04-20 04:00:00 9.5 4 Sudoeste 8 Sudoeste 0 -- -- 95
2019-04-20 03:00:00 10 4 Sudoeste 7 Sudoeste 0 -- -- 94
2019-04-20 02:00:00 11 5 Oeste 6 Oeste 0 -- -- 92
2019-04-20 01:00:00 12 3 Noroeste 6 Oeste 0 -- -- 88
2019-04-20 00:00:00 13.1 0 Calma 7 Este 0 -- -- 83
2019-04-19 23:00:00 14.3 3 Este 5 Este 0 -- -- 78
2019-04-19 22:00:00 15.7 2 Este 10 Este 0 -- -- 72
2019-04-19 21:00:00 17.2 4 Nordeste 10 Este 0 -- -- 65
2019-04-19 20:00:00 18.8 5 Norte 13 Este 0 -- -- 57
2019-04-19 19:00:00 19.8 6 Nordeste 22 Este 0 -- -- 57
2019-04-19 18:00:00 19.9 12 Este 30 Este 0 -- -- 57
2019-04-19 17:00:00 20.5 9 Este 24 Este 0 -- -- 59
2019-04-19 16:00:00 19.7 12 Este 19 Este 0 -- -- 61
2019-04-19 15:00:00 18.1 2 Sur 5 Oeste 0 -- -- 65
2019-04-19 14:00:00 17.4 3 Sudoeste 6 Sudeste 0 -- -- 65
2019-04-19 13:00:00 16.7 3 Sur 7 Sudeste 0 -- -- 68
2019-04-19 12:00:00 15.7 3 Sudeste 6 Sudeste 0 -- -- 71
2019-04-19 11:00:00 13.7 5 Sudeste 9 Este 0 -- -- 83
2019-04-19 10:00:00 12.5 3 Este 5 Sudeste 0 -- -- 86
2019-04-19 09:00:00 11.8 0 Calma 12 Este 0 -- -- 83
2019-04-19 08:00:00 12.9 2 Noroeste 24 Oeste 0 -- -- 69
2019-04-19 07:00:00 12.6 13 Oeste 24 Oeste 0 -- -- 70
2019-04-19 06:00:00 12.8 5 Oeste 13 Sudoeste 0 -- -- 70
2019-04-19 05:00:00 10.9 5 Norte 17 Este 0 -- -- 90
2019-04-19 04:00:00 10.3 5 Sudoeste 11 Noroeste 0 -- -- 94
2019-04-19 03:00:00 10.4 8 Este 16 Sudeste 0 -- -- 94
2019-04-19 02:00:00 10.9 4 Oeste 10 Noroeste 0 -- -- 90
2019-04-19 01:00:00 11.1 4 Noroeste 5 Noroeste 0 -- -- 89
2019-04-19 00:00:00 11.7 2 Oeste 5 Oeste 0 -- -- 87
2019-04-18 23:00:00 12.7 0 Calma 6 Este 0 -- -- 83
2019-04-18 22:00:00 13.2 4 Sudeste 8 Sudeste 0 -- -- 83
2019-04-18 21:00:00 13.4 7 Sudeste 14 Nordeste 0 -- -- 80
2019-04-18 20:00:00 13.7 6 Este 21 Nordeste 0 -- -- 80
2019-04-18 19:00:00 14.3 9 Norte 21 Nordeste 0 -- -- 79
2019-04-18 18:00:00 15.1 9 Nordeste 23 Nordeste 0 -- -- 76
2019-04-18 17:00:00 15.5 8 Nordeste 22 Norte 0 -- -- 76
2019-04-18 16:00:00 15.7 7 Nordeste 24 Nordeste 0 -- -- 73
2019-04-18 15:00:00 16.8 14 Este 26 Este 0 -- -- 68
2019-04-18 14:00:00 17.3 4 Este 15 Oeste 0 -- -- 62
2019-04-18 13:00:00 14.1 9 Oeste 28 Sudeste 0 -- -- 73
2019-04-18 12:00:00 14.6 16 Oeste 33 Oeste 0 -- -- 65
2019-04-18 11:00:00 14.7 14 Sudeste 51 Sudeste 0 -- -- 67
2019-04-18 10:00:00 15 20 Sudeste 40 Sudeste 0 -- -- 63
2019-04-18 09:00:00 15.3 9 Sudoeste 31 Sudoeste 0 -- -- 57
2019-04-18 08:00:00 15.4 12 Sudoeste 42 Sudeste 0 -- -- 57
2019-04-18 07:00:00 15.2 15 Sur 33 Sur 0 -- -- 57
2019-04-18 06:00:00 15.4 8 Noroeste 53 Sudeste 0 -- -- 58
2019-04-18 05:00:00 15.7 20 Sudeste 46 Este 0 -- -- 54
2019-04-18 04:00:00 15.7 17 Sudeste 39 Sudeste 0 -- -- 52
2019-04-18 03:00:00 15.6 6 Oeste 22 Sudeste 0 -- -- 53
2019-04-18 02:00:00 16.7 12 Sur 68 Sudeste 0 -- -- 50
2019-04-18 01:00:00 17.5 30 Sudeste 67 Sudeste 0 -- -- 52
2019-04-18 00:00:00 17.8 13 Sur 60 Este 0 -- -- 57
2019-04-17 23:00:00 19.4 25 Sudeste 50 Sudeste 0 -- -- 53
2019-04-17 22:00:00 19.6 21 Sudeste 43 Sudeste 0 -- -- 52
2019-04-17 21:00:00 19.8 14 Sudeste 37 Sur 0 -- -- 51
2019-04-17 20:00:00 20 18 Sur 35 Sudeste 0 -- -- 51
2019-04-17 19:00:00 20.5 9 Sur 26 Sudoeste 0 -- -- 48
2019-04-17 18:00:00 20.1 16 Sur 34 Sudeste 0 -- -- 50
2019-04-17 17:00:00 20.3 17 Sudeste 42 Sudeste 0 -- -- 52
2019-04-17 16:00:00 19.2 6 Norte 59 Sudeste 0 -- -- 54
2019-04-17 15:00:00 18.1 13 Sur 64 Sudeste 0 -- -- 53
2019-04-17 14:00:00 17 42 Sudeste 76 Sudeste 0 -- -- 56
2019-04-17 13:00:00 16.6 24 Sur 68 Sudeste 0 -- -- 55
2019-04-17 12:00:00 15.4 31 Sudeste 68 Sudeste 0 -- -- 59
2019-04-17 11:00:00 14.9 29 Sudeste 58 Sudeste 0 -- -- 60
2019-04-17 10:00:00 14.8 22 Sur 40 Sur 0 -- -- 60
2019-04-17 09:00:00 14.8 13 Sudeste 48 Sur 0 -- -- 60
2019-04-17 08:00:00 14.3 9 Sur 30 Sur 0 -- -- 60
2019-04-17 07:00:00 14.9 10 Oeste 51 Este 0 -- -- 59
2019-04-17 06:00:00 15.4 14 Sudoeste 40 Sudeste 0 -- -- 55
2019-04-17 05:00:00 15.5 10 Sur 75 Sudeste 0 -- -- 56
2019-04-17 04:00:00 15.8 37 Sudeste 68 Sudeste 0 -- -- 57
2019-04-17 03:00:00 16.3 31 Sudeste 70 Sudeste 0 -- -- 56
2019-04-17 02:00:00 16.4 28 Sudeste 64 Sudeste 0 -- -- 57
2019-04-17 01:00:00 16.9 28 Este 55 Este 0 -- -- 57
2019-04-17 00:00:00 16.4 12 Sudeste 25 Sudeste 0 -- -- 55
2019-04-16 23:00:00 14.5 6 Este 14 Sudeste 0 -- -- 69
2019-04-16 22:00:00 14.9 4 Este 13 Este 0 -- -- 71
2019-04-16 21:00:00 16.8 2 Noroeste 15 Nordeste 0 -- -- 55
2019-04-16 20:00:00 17.5 6 Nordeste 21 Este 0 -- -- 60
2019-04-16 19:00:00 17.7 8 Nordeste 24 Este 0 -- -- 66
2019-04-16 18:00:00 18.9 9 Nordeste 18 Este 0 -- -- 60
2019-04-16 17:00:00 19.1 12 Este 22 Este 0 -- -- 55
2019-04-16 16:00:00 19.1 8 Este 22 Este 0 -- -- 58
2019-04-16 15:00:00 18.2 9 Este 18 Este 0 -- -- 56
2019-04-16 14:00:00 16.4 8 Este 18 Este 0 -- -- 61
2019-04-16 13:00:00 14.9 10 Este 19 Este 0 -- -- 70
2019-04-16 12:00:00 14.2 5 Sudeste 12 Sudeste 0 -- -- 82
2019-04-16 11:00:00 11.2 5 Sudeste 10 Sudeste 0 -- -- 100
2019-04-16 10:00:00 8.8 3 Oeste 9 Este 0 -- -- 100
2019-04-16 09:00:00 8.5 3 Oeste 8 Oeste 0 -- -- 100
2019-04-16 08:00:00 8.2 3 Oeste 7 Sudoeste 0 -- -- 100
2019-04-16 07:00:00 8.2 3 Noroeste 11 Noroeste 0 -- -- 100
2019-04-16 06:00:00 8.8 5 Noroeste 10 Noroeste 0 -- -- 100
2019-04-16 05:00:00 9.8 0 Calma 4 Este 0 -- -- 100
2019-04-16 04:00:00 10.1 2 Oeste 5 Oeste 0 -- -- 100
2019-04-16 03:00:00 10.2 2 Oeste 4 Noroeste 0 -- -- 100
2019-04-16 02:00:00 10.6 0 Calma 8 Sudoeste 0.2 -- -- 100
2019-04-16 01:00:00 10.9 0 Calma 9 Oeste 1 -- -- 100
2019-04-16 00:00:00 11 6 Oeste 10 Oeste 2 -- -- 100
2019-04-15 23:00:00 10.9 2 Norte 10 Este 2.4 -- -- 100
2019-04-15 22:00:00 11.2 4 Sudoeste 12 Sudeste 0.4 -- -- 99
2019-04-15 21:00:00 11.2 7 Este 16 Este 5 -- -- 99
2019-04-15 20:00:00 12.2 4 Este 23 Sudoeste 3.8 -- -- 97
2019-04-15 19:00:00 12.4 11 Este 65 Oeste 11.6 -- -- 97
2019-04-15 18:00:00 16.2 37 Oeste 64 Oeste 2.4 -- -- 79
2019-04-15 17:00:00 21.5 18 Sudeste 39 Sudeste 0 -- -- 54
2019-04-15 16:00:00 20.7 22 Sudeste 37 Sudeste 0 -- -- 56
2019-04-15 15:00:00 21.4 6 Norte 19 Este 0 -- -- 58
2019-04-15 14:00:00 20.9 7 Sudeste 39 Sudeste 0 -- -- 57
2019-04-15 13:00:00 20 26 Sudeste 44 Sudeste 0 -- -- 61
2019-04-15 12:00:00 20.7 13 Sur 43 Sudeste 0 -- -- 60
2019-04-15 11:00:00 17.8 9 Noroeste 21 Oeste 0 -- -- 68
2019-04-15 10:00:00 13.1 6 Oeste 13 Sudoeste 0 -- -- 100
2019-04-15 09:00:00 9.7 5 Sudoeste 10 Este 0 -- -- 100
2019-04-15 08:00:00 9.3 0 Calma 8 Oeste 0 -- -- 100
2019-04-15 07:00:00 9.3 3 Noroeste 5 Este 0 -- -- 100
2019-04-15 06:00:00 9.3 3 Oeste 6 Oeste 0 -- -- 100
2019-04-15 05:00:00 9.6 3 Sudoeste 6 Noroeste 0 -- -- 99
2019-04-15 04:00:00 9.9 0 Calma 6 Sudoeste 0 -- -- 99
2019-04-15 03:00:00 10.8 6 Noroeste 8 Noroeste 0 -- -- 99
2019-04-15 02:00:00 11.1 2 Noroeste 6 Oeste 0 -- -- 97
2019-04-15 01:00:00 11.9 0 Calma 6 Este 0 -- -- 94
2019-04-15 00:00:00 12.4 4 Norte 10 Este 0 -- -- 93
2019-04-14 23:00:00 13.7 4 Este 8 Este 0 -- -- 88
2019-04-14 22:00:00 14.5 3 Este 9 Este 0 -- -- 84
2019-04-14 21:00:00 16 3 Nordeste 14 Nordeste 0 -- -- 78
2019-04-14 20:00:00 16.6 7 Nordeste 17 Este 0 -- -- 77
2019-04-14 19:00:00 17.2 9 Sudeste 17 Este 0 -- -- 77
2019-04-14 18:00:00 18.5 8 Este 21 Noroeste 0 -- -- 69
2019-04-14 17:00:00 19 12 Norte 24 Norte 0 -- -- 60
2019-04-14 16:00:00 19.3 4 Nordeste 21 Este 0 -- -- 55
2019-04-14 15:00:00 18.9 15 Sudeste 22 Este 0 -- -- 52
2019-04-14 14:00:00 18.5 12 Este 23 Este 0 -- -- 51
2019-04-14 13:00:00 18 9 Este 15 Este 0 -- -- 47
2019-04-14 12:00:00 16.5 6 Sudeste 10 Sudeste 0 -- -- 55
2019-04-14 11:00:00 13.2 4 Sudeste 6 Sudeste 0 -- -- 68
2019-04-14 10:00:00 10.3 2 Este 3 Este 0 -- -- 78
2019-04-14 09:00:00 9.2 0 Calma 6 Oeste 0 -- -- 80
2019-04-14 08:00:00 8.4 2 Noroeste 4 Noroeste 0 -- -- 82
2019-04-14 07:00:00 7.7 2 Sudoeste 5 Noroeste 0 -- -- 84
2019-04-14 06:00:00 7.9 3 Oeste 4 Noroeste 0 -- -- 82
2019-04-14 05:00:00 7.6 0 Calma 5 Noroeste 0 -- -- 82
2019-04-14 04:00:00 7.9 2 Este 5 Noroeste 0 -- -- 78
2019-04-14 03:00:00 8.2 0 Calma 4 Oeste 0 -- -- 76
2019-04-14 02:00:00 8.5 2 Sudoeste 3 Oeste 0 -- -- 70
2019-04-14 01:00:00 9 0 Calma 3 Oeste 0 -- -- 70
2019-04-14 00:00:00 10 0 Calma 5 Sudoeste 0 -- -- 64
2019-04-13 23:00:00 11.5 2 Oeste 8 Oeste 0 -- -- 60
2019-04-13 22:00:00 13.6 3 Oeste 5 Oeste 0 -- -- 49
2019-04-13 21:00:00 15.8 5 Este 15 Este 0 -- -- 47
2019-04-13 20:00:00 17.8 8 Nordeste 17 Este 0 -- -- 41
2019-04-13 19:00:00 19.1 7 Nordeste 17 Nordeste 0 -- -- 42
2019-04-13 18:00:00 20 8 Este 21 Este 0 -- -- 37
2019-04-13 17:00:00 20.3 13 Este 23 Este 0 -- -- 30
2019-04-13 16:00:00 20.9 11 Sudeste 17 Este 0 -- -- 25
2019-04-13 15:00:00 19.8 9 Este 21 Sudeste 0 -- -- 28
2019-04-13 14:00:00 18.3 12 Este 18 Este 0 -- -- 34
2019-04-13 13:00:00 15.6 5 Sudeste 12 Sur 0 -- -- 59
2019-04-13 12:00:00 11.6 4 Sudeste 9 Este 0 -- -- 68
2019-04-13 11:00:00 6.4 4 Sudeste 10 Sudeste 0 -- -- 100
2019-04-13 10:00:00 3.1 3 Oeste 7 Noroeste 0 -- -- 100
2019-04-13 09:00:00 2.4 3 Sudeste 6 Sudeste 0 -- -- 100
2019-04-13 08:00:00 2.4 3 Sur 6 Sur 0 -- -- 100
2019-04-13 07:00:00 2.5 4 Oeste 6 Oeste 0 -- -- 100
2019-04-13 06:00:00 2.9 3 Sudoeste 5 Oeste 0 -- -- 100
2019-04-13 05:00:00 2.9 3 Oeste 6 Oeste 0 -- -- 99
2019-04-13 04:00:00 3.2 0 Calma 4 Oeste 0 -- -- 99
2019-04-13 03:00:00 3.6 2 Sudoeste 5 Oeste 0 -- -- 98
2019-04-13 02:00:00 4.4 2 Sudoeste 4 Sudoeste 0 -- -- 96
2019-04-13 01:00:00 5.3 3 Oeste 4 Sudoeste 0 -- -- 94
2019-04-13 00:00:00 6.2 3 Oeste 6 Oeste 0 -- -- 90
2019-04-12 23:00:00 7.3 0 Calma 5 Oeste 0 -- -- 86
2019-04-12 22:00:00 8.7 4 Oeste 11 Nordeste 0 -- -- 79
2019-04-12 21:00:00 9.9 5 Norte 16 Nordeste 0 -- -- 73
2019-04-12 20:00:00 11.8 9 Nordeste 18 Norte 0 -- -- 68
2019-04-12 19:00:00 13.6 6 Norte 16 Noroeste 0 -- -- 59
2019-04-12 18:00:00 14.9 6 Noroeste 16 Sudeste 0 -- -- 58
2019-04-12 17:00:00 15.3 5 Sudeste 20 Norte 0.2 -- -- 55
2019-04-12 16:00:00 14.3 7 Noroeste 25 Noroeste 0 -- -- 53
2019-04-12 15:00:00 13.9 12 Noroeste 21 Norte 0 -- -- 61
2019-04-12 14:00:00 12.4 10 Noroeste 23 Este 0 -- -- 64
2019-04-12 13:00:00 12.3 6 Sudeste 21 Noroeste 0 -- -- 74
2019-04-12 12:00:00 11.9 6 Este 31 Noroeste 0 -- -- 78
2019-04-12 11:00:00 9.9 4 Sudeste 13 Sudoeste 0 -- -- 91
2019-04-12 10:00:00 8.7 4 Sudeste 9 Sudeste 0 -- -- 100
2019-04-12 09:00:00 7.7 0 Calma 9 Este 0 -- -- 100
2019-04-12 08:00:00 7.4 5 Este 13 Este 0 -- -- 100
2019-04-12 07:00:00 7.4 4 Sudeste 9 Este 0 -- -- 100
2019-04-12 06:00:00 7.5 2 Este 5 Este 0 -- -- 100
2019-04-12 05:00:00 7.5 4 Este 5 Este 0 -- -- 100
2019-04-12 04:00:00 7.6 4 Este 6 Este 0.2 -- -- 99
2019-04-12 03:00:00 7.6 0 Calma 8 Este 0 -- -- 99
2019-04-12 02:00:00 7.5 4 Este 8 Este 0.2 -- -- 99
2019-04-12 01:00:00 7.6 3 Este 5 Este 0 -- -- 98
2019-04-12 00:00:00 7.7 2 Oeste 10 Sudeste 0.8 -- -- 96
2019-04-11 23:00:00 8 3 Este 7 Sur 0 -- -- 92
2019-04-11 22:00:00 8.4 3 Sur 9 Noroeste 0.2 -- -- 87
2019-04-11 21:00:00 8.5 7 Noroeste 13 Norte 0 -- -- 86
2019-04-11 20:00:00 10 6 Norte 13 Noroeste 0 -- -- 81
2019-04-11 19:00:00 10.6 3 Noroeste 18 Norte 0 -- -- 80
2019-04-11 18:00:00 10.9 8 Norte 22 Noroeste 0 -- -- 80
2019-04-11 17:00:00 10.2 10 Noroeste 23 Noroeste 0.6 -- -- 89
2019-04-11 16:00:00 10.7 6 Oeste 14 Noroeste 0.2 -- -- 92
2019-04-11 15:00:00 10.6 3 Sudoeste 13 Este 0 -- -- 92
2019-04-11 14:00:00 9.8 3 Sudoeste 15 Noroeste 1.2 -- -- 93
2019-04-11 13:00:00 10.1 6 Noroeste 18 Noroeste 0.2 -- -- 95
2019-04-11 12:00:00 8.8 2 Oeste 12 Nordeste 0.4 -- -- 100
2019-04-11 11:00:00 7.8 4 Sudeste 10 Este 0.8 -- -- 100
2019-04-11 10:00:00 6.9 3 Norte 7 Este 3 -- -- 100
2019-04-11 09:00:00 6.2 4 Este 8 Sudeste 0 -- -- 100
2019-04-11 08:00:00 6.1 3 Este 6 Noroeste 0 -- -- 100
2019-04-11 07:00:00 6.2 4 Este 8 Noroeste 0 -- -- 100
2019-04-11 06:00:00 6.8 2 Sudeste 6 Sudeste 0 -- -- 100
2019-04-11 05:00:00 6.9 3 Este 6 Este 0 -- -- 100
2019-04-11 04:00:00 7.2 3 Sudoeste 10 Este 1.2 -- -- 100
2019-04-11 03:00:00 7.2 3 Sudeste 8 Sudoeste 1.4 -- -- 100
2019-04-11 02:00:00 7.3 2 Sudeste 5 Sudoeste 1.4 -- -- 100
2019-04-11 01:00:00 7.2 4 Noroeste 8 Este 3 -- -- 99
2019-04-11 00:00:00 7.3 3 Nordeste 8 Noroeste 2.6 -- -- 98
2019-04-10 23:00:00 7.4 5 Oeste 9 Noroeste 0 -- -- 96
2019-04-10 22:00:00 8.1 2 Sur 11 Nordeste 0 -- -- 91
2019-04-10 21:00:00 8.8 5 Este 24 Oeste 0.2 -- -- 92
2019-04-10 20:00:00 8.8 4 Nordeste 14 Este 1 -- -- 93
2019-04-10 19:00:00 10.1 6 Norte 29 Noroeste 0.2 -- -- 80
2019-04-10 18:00:00 11.3 10 Noroeste 26 Noroeste 0 -- -- 73
2019-04-10 17:00:00 12 4 Oeste 19 Oeste 0 -- -- 72
2019-04-10 16:00:00 11.7 5 Oeste 20 Noroeste 0 -- -- 76
2019-04-10 15:00:00 11.1 8 Oeste 14 Oeste 0 -- -- 77
2019-04-10 14:00:00 10.7 3 Sudoeste 11 Sudeste 0 -- -- 90
2019-04-10 13:00:00 8.6 4 Oeste 11 Nordeste 4.6 -- -- 100
2019-04-10 12:00:00 6.9 6 Nordeste 12 Este 3 -- -- 100
2019-04-10 11:00:00 6.3 3 Sudeste 6 Este 0.4 -- -- 100
2019-04-10 10:00:00 5.5 0 Calma 8 Sudoeste 0 -- -- 100
2019-04-10 09:00:00 5.1 3 Sudoeste 7 Sudoeste 0 -- -- 100
2019-04-10 08:00:00 4.7 5 Noroeste 8 Noroeste 0 -- -- 100
2019-04-10 07:00:00 5.2 3 Noroeste 6 Oeste 0 -- -- 100
2019-04-10 06:00:00 5.6 0 Calma 6 Sudeste 0 -- -- 100
2019-04-10 05:00:00 5.9 2 Sudoeste 5 Noroeste 0 -- -- 99
2019-04-10 04:00:00 6.2 3 Oeste 4 Oeste 0 -- -- 99
2019-04-10 03:00:00 6.3 2 Sudoeste 5 Oeste 0 -- -- 99
2019-04-10 02:00:00 6.6 0 Calma 9 Oeste 0 -- -- 98
2019-04-10 01:00:00 7 3 Oeste 12 Noroeste 0 -- -- 97
2019-04-10 00:00:00 7.2 9 Noroeste 13 Noroeste 0 -- -- 96
2019-04-09 23:00:00 7.4 4 Noroeste 9 Noroeste 0 -- -- 97
2019-04-09 22:00:00 7.5 2 Noroeste 12 Oeste 0.8 -- -- 96
2019-04-09 21:00:00 7.6 10 Oeste 24 Oeste 0.4 -- -- 96
2019-04-09 20:00:00 8.7 13 Oeste 22 Oeste 3 -- -- 94
2019-04-09 19:00:00 9.5 8 Oeste 21 Oeste 2 -- -- 90
2019-04-09 18:00:00 11.9 13 Norte 35 Norte 0 -- -- 68
2019-04-09 17:00:00 15.2 11 Norte 26 Oeste 0 -- -- 54
2019-04-09 16:00:00 15.7 12 Oeste 20 Oeste 0 -- -- 50
2019-04-09 15:00:00 15.3 8 Sudoeste 30 Oeste 0 -- -- 52
2019-04-09 14:00:00 14.3 18 Oeste 32 Oeste 0 -- -- 55
2019-04-09 13:00:00 14.4 17 Oeste 36 Oeste 0 -- -- 56
2019-04-09 12:00:00 13.4 12 Oeste 27 Oeste 0 -- -- 56
2019-04-09 11:00:00 13 6 Sur 14 Oeste 0 -- -- 67
2019-04-09 10:00:00 10.7 7 Oeste 14 Oeste 0 -- -- 76
2019-04-09 09:00:00 5.5 6 Oeste 13 Oeste 0 -- -- 100
2019-04-09 08:00:00 3.7 3 Norte 9 Noroeste 0 -- -- 100
2019-04-09 07:00:00 3.4 3 Sudoeste 10 Oeste 0 -- -- 100
2019-04-09 06:00:00 3.7 6 Oeste 10 Oeste 0 -- -- 100
2019-04-09 05:00:00 4.2 5 Noroeste 8 Noroeste 0 -- -- 100
2019-04-09 04:00:00 4.7 3 Sudoeste 7 Noroeste 0 -- -- 100
2019-04-09 03:00:00 5 3 Oeste 7 Oeste 0 -- -- 99
2019-04-09 02:00:00 5.2 4 Oeste 6 Noroeste 0 -- -- 99
2019-04-09 01:00:00 5.6 3 Sur 5 Oeste 0 -- -- 98
2019-04-09 00:00:00 6.2 3 Sudoeste 7 Noroeste 0 -- -- 96
2019-04-08 23:00:00 6.9 4 Noroeste 8 Oeste 0 -- -- 93
2019-04-08 22:00:00 8 2 Oeste 8 Noroeste 0 -- -- 87
2019-04-08 21:00:00 9.4 0 Calma 8 Norte 0 -- -- 83
2019-04-08 20:00:00 10.7 3 Norte 9 Norte 0 -- -- 74
2019-04-08 19:00:00 11.4 5 Norte 9 Norte 0 -- -- 80
2019-04-08 18:00:00 11.6 4 Norte 12 Sudeste 0 -- -- 86
2019-04-08 17:00:00 11.9 6 Sudeste 14 Este 0.2 -- -- 84
2019-04-08 16:00:00 11 6 Este 10 Este 0.6 -- -- 92
2019-04-08 15:00:00 11 4 Sur 9 Sudeste 1 -- -- 96
2019-04-08 14:00:00 10.2 4 Sudeste 10 Oeste 5 -- -- 97
2019-04-08 13:00:00 10 5 Noroeste 7 Noroeste 0.4 -- -- 96
2019-04-08 12:00:00 9.5 5 Sudeste 10 Sudeste 2.6 -- -- 95
2019-04-08 11:00:00 10 8 Este 18 Este 0.6 -- -- 88
2019-04-08 10:00:00 10.8 4 Oeste 9 Norte 0 -- -- 79
2019-04-08 09:00:00 10.3 6 Noroeste 16 Oeste 0 -- -- 83
2019-04-08 08:00:00 11 5 Sudoeste 19 Oeste 0 -- -- 76
2019-04-08 07:00:00 10.9 6 Oeste 21 Sudoeste 0.2 -- -- 73
2019-04-08 06:00:00 11.1 15 Oeste 25 Oeste 0.2 -- -- 72
2019-04-08 05:00:00 11.8 10 Oeste 27 Sudoeste 0 -- -- 62
2019-04-08 04:00:00 11.9 12 Sudoeste 26 Oeste 0 -- -- 61
2019-04-08 03:00:00 11.3 7 Sudoeste 20 Oeste 0 -- -- 61
2019-04-08 02:00:00 11.1 6 Oeste 23 Sudoeste 0 -- -- 60
2019-04-08 01:00:00 11 6 Oeste 15 Noroeste 0 -- -- 63
2019-04-08 00:00:00 10.4 3 Noroeste 27 Oeste 0 -- -- 66
2019-04-07 23:00:00 9.3 4 Oeste 9 Noroeste 0 -- -- 76
2019-04-07 22:00:00 10 0 Calma 4 Oeste 0 -- -- 76
2019-04-07 21:00:00 11.3 2 Norte 8 Nordeste 0 -- -- 69
2019-04-07 20:00:00 12.4 6 Nordeste 11 Nordeste 0 -- -- 62
2019-04-07 19:00:00 13 6 Nordeste 17 Este 0 -- -- 62
2019-04-07 18:00:00 13.5 11 Este 16 Este 0 -- -- 59
2019-04-07 17:00:00 13.8 8 Este 21 Este 0 -- -- 61
2019-04-07 16:00:00 12.4 9 Este 21 Este 0 -- -- 71
2019-04-07 15:00:00 11.4 12 Este 22 Oeste 0 -- -- 71
2019-04-07 14:00:00 11.3 7 Noroeste 33 Sudoeste 0 -- -- 66
2019-04-07 13:00:00 11.5 16 Oeste 32 Oeste 0 -- -- 66
2019-04-07 12:00:00 9.6 9 Sudoeste 19 Oeste 0 -- -- 80
2019-04-07 11:00:00 8 5 Oeste 12 Sudoeste 0 -- -- 92
2019-04-07 10:00:00 6.8 2 Sudoeste 5 Sudoeste 0 -- -- 100
2019-04-07 09:00:00 6 3 Oeste 8 Noroeste 0 -- -- 100
2019-04-07 08:00:00 5.6 3 Oeste 5 Este 0.2 -- -- 99
2019-04-07 07:00:00 5.6 0 Calma 4 Este 0 -- -- 99
2019-04-07 06:00:00 5.5 3 Este 8 Noroeste 0 -- -- 98
2019-04-07 05:00:00 5.7 3 Este 7 Noroeste 0 -- -- 98
2019-04-07 04:00:00 6.1 0 Calma 5 Noroeste 0 -- -- 99
2019-04-07 03:00:00 6.2 4 Noroeste 6 Este 0 -- -- 99
2019-04-07 02:00:00 6.3 2 Sudoeste 3 Oeste 0 -- -- 98
2019-04-07 01:00:00 6.3 2 Sur 4 Sur 0 -- -- 97
2019-04-07 00:00:00 6.5 0 Calma 5 Este 0 -- -- 95
2019-04-06 23:00:00 6.7 2 Nordeste 9 Oeste 0.6 -- -- 95
2019-04-06 22:00:00 6.9 2 Oeste 36 Noroeste 2.6 -- -- 91
2019-04-06 21:00:00 10.3 9 Oeste 23 Sudeste 0 -- -- 66
2019-04-06 20:00:00 11.3 15 Sudeste 27 Sudeste 0 -- -- 60
2019-04-06 19:00:00 12.7 12 Sur 22 Sur 0 -- -- 53
2019-04-06 18:00:00 13.3 9 Sur 28 Sur 0 -- -- 50
2019-04-06 17:00:00 14.2 15 Oeste 28 Sudoeste 0 -- -- 46
2019-04-06 16:00:00 13.2 15 Oeste 36 Noroeste 0 -- -- 49
2019-04-06 15:00:00 13.7 14 Oeste 50 Oeste 0 -- -- 52
2019-04-06 14:00:00 13.2 18 Oeste 40 Sudoeste 0 -- -- 57
2019-04-06 13:00:00 12.4 10 Oeste 31 Oeste 0 -- -- 61
2019-04-06 12:00:00 11.2 12 Oeste 30 Oeste 0 -- -- 60
2019-04-06 11:00:00 9.6 7 Sudoeste 15 Oeste 0 -- -- 72
2019-04-06 10:00:00 6 5 Oeste 10 Oeste 0 -- -- 100
2019-04-06 09:00:00 4.2 4 Oeste 9 Oeste 0 -- -- 100
2019-04-06 08:00:00 4.5 6 Sudoeste 12 Oeste 0 -- -- 100
2019-04-06 07:00:00 5.1 2 Oeste 7 Noroeste 0 -- -- 100
2019-04-06 06:00:00 5.2 2 Sur 10 Este 0 -- -- 100
2019-04-06 05:00:00 5.1 0 Calma 8 Sudoeste 0 -- -- 100
2019-04-06 04:00:00 5.2 3 Norte 6 Oeste 0 -- -- 100
2019-04-06 03:00:00 5.2 4 Oeste 6 Sudoeste 0 -- -- 100
2019-04-06 02:00:00 5.2 0 Calma 5 Noroeste 0 -- -- 99
2019-04-06 01:00:00 5.4 0 Calma 9 Este 0 -- -- 99
2019-04-06 00:00:00 5.5 2 Noroeste 8 Este 0 -- -- 98
2019-04-05 23:00:00 5.8 2 Este 10 Noroeste 0 -- -- 96
2019-04-05 22:00:00 5.9 0 Calma 10 Este 0 -- -- 95
2019-04-05 21:00:00 5.9 4 Nordeste 11 Sudeste 1.6 -- -- 96
2019-04-05 20:00:00 6.2 3 Norte 9 Norte 1.4 -- -- 97
2019-04-05 19:00:00 6.2 5 Noroeste 9 Este 1 -- -- 96
2019-04-05 18:00:00 6.4 8 Este 12 Oeste 3 -- -- 96
2019-04-05 17:00:00 6.4 6 Oeste 52 Oeste 6.8 -- -- 91
2019-04-05 16:00:00 12.3 12 Sudoeste 33 Sudeste 0 -- -- 60
2019-04-05 15:00:00 12.5 19 Sudeste 39 Sudeste 0 -- -- 61
2019-04-05 14:00:00 13.8 21 Sur 40 Sudeste 0 -- -- 58
2019-04-05 13:00:00 11.3 26 Sudeste 46 Este 0 -- -- 64
2019-04-05 12:00:00 10.8 22 Sudeste -- -- -- -- -- 63
2019-04-05 11:00:00 10.8 25 Sudeste 44 Sudeste 0 -- -- 63
2019-04-05 10:00:00 10 25 Sudeste 41 Sudeste 0 -- -- 62
2019-04-05 09:00:00 10.1 20 Sudeste 37 Sudeste 0 -- -- 57
2019-04-05 08:00:00 10.3 24 Sur 51 Sudeste 0 -- -- 55
2019-04-05 07:00:00 10.6 22 Sudeste 54 Sur 0 -- -- 50
2019-04-05 06:00:00 10.6 16 Sur 48 Sudeste 0 -- -- 46
2019-04-05 05:00:00 10.5 10 Sudoeste 33 Sudoeste 0 -- -- 43
2019-04-05 04:00:00 10.4 13 Oeste 24 Sudoeste 0 -- -- 44
2019-04-05 03:00:00 10.4 10 Oeste 27 Oeste 0 -- -- 52
2019-04-05 02:00:00 10 12 Oeste 29 Sudoeste 0 -- -- 53
2019-04-05 01:00:00 10.8 21 Oeste 34 Oeste 0 -- -- 50
2019-04-05 00:00:00 11.2 14 Oeste 23 Oeste 0 -- -- 45
2019-04-04 23:00:00 11.4 6 Sur 23 Sudeste 0 -- -- 47
2019-04-04 22:00:00 11.8 9 Sur 19 Sudeste 0 -- -- 46
2019-04-04 21:00:00 12.3 8 Sur 23 Sudeste 0 -- -- 44
2019-04-04 20:00:00 13.1 8 Sur 21 Sur 0 -- -- 42
2019-04-04 19:00:00 13.9 16 Oeste 39 Sudoeste 0 -- -- 33
2019-04-04 18:00:00 14.2 18 Oeste 32 Sudoeste 0 -- -- 40
2019-04-04 17:00:00 15 13 Sudoeste 31 Oeste 0 -- -- 40
2019-04-04 16:00:00 14 8 Sudoeste 29 Oeste 0 -- -- 45
2019-04-04 15:00:00 12.4 10 Sudoeste 20 Oeste 0 -- -- 43
2019-04-04 14:00:00 11.1 13 Sudeste 26 Sudeste 0 -- -- 59
2019-04-04 13:00:00 9.5 9 Sudoeste 22 Oeste 0 -- -- 57
2019-04-04 12:00:00 8.8 4 Sur 8 Sur 0 -- -- 74
2019-04-04 11:00:00 7.1 5 Sur 11 Sudeste 0 -- -- 77
2019-04-04 10:00:00 4 3 Sudeste 7 Sudeste 0 -- -- 97
2019-04-04 09:00:00 2.7 5 Noroeste 8 Noroeste 0 -- -- 98
2019-04-04 08:00:00 2.3 3 Noroeste 12 Oeste 0.2 -- -- 99
2019-04-04 07:00:00 2.3 8 Oeste 13 Oeste 0.4 -- -- 99
2019-04-04 06:00:00 2.3 5 Sudoeste 14 Oeste 0.4 -- -- 100
2019-04-04 05:00:00 2.2 5 Oeste 10 Oeste 0.4 -- -- 99
2019-04-04 04:00:00 2 4 Oeste 6 Sudoeste 0 -- -- 99
2019-04-04 03:00:00 2 3 Oeste 9 Noroeste 0.8 -- -- 98
2019-04-04 02:00:00 2.1 3 Oeste 9 Noroeste 0.6 -- -- 97
2019-04-04 01:00:00 1.7 5 Noroeste 10 Noroeste 0 -- -- 96
2019-04-04 00:00:00 2.4 3 Sudoeste 6 Sudoeste 1.4 -- -- 93
2019-04-03 23:00:00 2.8 2 Nordeste 18 Oeste 0 -- -- 91
2019-04-03 22:00:00 2.9 10 Sudoeste 59 Oeste 1.2 -- -- 93
2019-04-03 21:00:00 4 8 Sudoeste 45 Noroeste 0.2 -- -- 85
2019-04-03 20:00:00 6.6 14 Oeste 35 Oeste 0 -- -- 67
2019-04-03 19:00:00 7.4 10 Oeste 32 Sudoeste 0 -- -- 67
2019-04-03 18:00:00 7.6 13 Oeste 39 Oeste 0 -- -- 69
2019-04-03 17:00:00 8.5 13 Oeste 31 Sudoeste 0.2 -- -- 67
2019-04-03 16:00:00 6.7 16 Oeste 32 Oeste 0 -- -- 82
2019-04-03 15:00:00 6.9 12 Noroeste 41 Oeste 0.6 -- -- 85
2019-04-03 14:00:00 9.7 18 Oeste 39 Oeste 0 -- -- 64
2019-04-03 13:00:00 8.7 12 Oeste 32 Oeste 0 -- -- 75
2019-04-03 12:00:00 7.6 18 Oeste 29 Oeste 0 -- -- 78
2019-04-03 11:00:00 6.7 10 Oeste 21 Oeste 0 -- -- 86
2019-04-03 10:00:00 6 4 Sudoeste 22 Oeste 0.4 -- -- 92
2019-04-03 09:00:00 6.1 3 Oeste 21 Oeste 0.6 -- -- 92
2019-04-03 08:00:00 6.4 4 Sudeste 9 Este 0.8 -- -- 98
2019-04-03 07:00:00 6.7 4 Sudeste 9 Sudeste 0.8 -- -- 97
2019-04-03 06:00:00 6.8 4 Sudoeste 8 Oeste 0 -- -- 95
2019-04-03 05:00:00 6.9 4 Oeste 10 Oeste 0 -- -- 95
2019-04-03 04:00:00 7 6 Oeste 16 Oeste 0.2 -- -- 96
2019-04-03 03:00:00 7.5 7 Oeste 14 Oeste 0.2 -- -- 96
2019-04-03 02:00:00 8 6 Oeste 12 Sudoeste 0 -- -- 96
2019-04-03 01:00:00 8.6 2 Sur 8 Sudeste 0.8 -- -- 96
2019-04-03 00:00:00 9.2 2 Este 5 Norte 0.8 -- -- 95
2019-04-02 23:00:00 9.6 3 Norte 9 Este 0.4 -- -- 93
2019-04-02 22:00:00 10.2 0 Calma 6 Este 0.2 -- -- 89
2019-04-02 21:00:00 10.7 2 Este 14 Norte 0 -- -- 82
2019-04-02 20:00:00 11.2 5 Noroeste 18 Noroeste 0 -- -- 77
2019-04-02 19:00:00 11.9 4 Norte 17 Este 0 -- -- 73
2019-04-02 18:00:00 12.8 5 Oeste 22 Norte 0 -- -- 72
2019-04-02 17:00:00 13.6 9 Nordeste 23 Este 0 -- -- 70
2019-04-02 16:00:00 14 12 Este 32 Este 0 -- -- 70
2019-04-02 15:00:00 16.2 12 Este 21 Este 0 -- -- 55
2019-04-02 14:00:00 13.9 9 Este 20 Este 0 -- -- 64
2019-04-02 13:00:00 14 4 Sudeste 16 Norte 0 -- -- 65
2019-04-02 12:00:00 13 8 Noroeste 14 Noroeste 0 -- -- 70
2019-04-02 11:00:00 12.4 4 Sudeste 9 Este 0 -- -- 80
2019-04-02 10:00:00 10.8 2 Sudoeste 7 Sur 0 -- -- 89
2019-04-02 09:00:00 8.5 3 Sur 7 Noroeste 0 -- -- 98
2019-04-02 08:00:00 8.4 5 Noroeste 8 Sudoeste 0 -- -- 97
2019-04-02 07:00:00 8.9 3 Sudoeste 6 Noroeste 0 -- -- 95
2019-04-02 06:00:00 9.6 3 Sudoeste 5 Noroeste 0 -- -- 93
2019-04-02 05:00:00 9.8 0 Calma 5 Sudoeste 0 -- -- 93
2019-04-02 04:00:00 10 0 Calma 6 Noroeste 0 -- -- 93
2019-04-02 03:00:00 10.7 3 Este 4 Este 0 -- -- 92
2019-04-02 02:00:00 11.1 3 Nordeste 6 Nordeste 0 -- -- 90
2019-04-02 01:00:00 11.6 0 Calma 4 Noroeste 0 -- -- 89
2019-04-02 00:00:00 11.8 2 Noroeste 4 Noroeste 0 -- -- 85
2019-04-01 23:00:00 12.3 3 Este 7 Este 0 -- -- 84
2019-04-01 22:00:00 12.6 3 Este 10 Este 0 -- -- 83
2019-04-01 21:00:00 13.4 10 Este 14 Este 0 -- -- 79
2019-04-01 20:00:00 14.8 4 Nordeste 6 Nordeste 0 -- -- 66
2019-04-01 19:00:00 15.1 5 Oeste 11 Sur 0 -- -- 62
2019-04-01 18:00:00 15.3 9 Sur 15 Sur 0 -- -- 64
2019-04-01 17:00:00 15.7 8 Sudeste 18 Sudeste 0 -- -- 63
2019-04-01 16:00:00 16.1 13 Sudeste 23 Sur 0 -- -- 61
2019-04-01 15:00:00 15.5 9 Sur 23 Sudeste 0 -- -- 63
2019-04-01 14:00:00 14.6 8 Sudeste 14 Sur 0 -- -- 67
2019-04-01 13:00:00 14.3 4 Este 12 Este 0 -- -- 69
2019-04-01 12:00:00 13.4 4 Este 9 Este 0 -- -- 80
2019-04-01 11:00:00 11.2 2 Sudeste 9 Sudeste 0 -- -- 95
2019-04-01 10:00:00 9.1 3 Oeste 5 Noroeste 0 -- -- 99
2019-04-01 09:00:00 8.6 0 Calma 5 Oeste 0 -- -- 99
2019-04-01 08:00:00 8.4 3 Oeste 5 Oeste 0.2 -- -- 98
2019-04-01 07:00:00 8.4 0 Calma 6 Este 0 -- -- 97
2019-04-01 06:00:00 8.5 0 Calma 8 Este 0 -- -- 96
2019-04-01 05:00:00 8.6 0 Calma 7 Oeste 0 -- -- 94
2019-04-01 04:00:00 9.3 5 Noroeste 12 Oeste 0.8 -- -- 85
2019-04-01 03:00:00 9.9 5 Oeste 15 Oeste 1 -- -- 80
2019-04-01 02:00:00 10.2 8 Noroeste 22 Sur 0.8 -- -- 77
2019-04-01 01:00:00 13.1 5 Sudoeste 16 Oeste 0 -- -- 53
2019-04-01 00:00:00 13.4 5 Oeste 13 Sudeste 0 -- -- 53
2019-03-31 23:00:00 13.7 5 Noroeste 14 Sur 0 -- -- 52
2019-03-31 22:00:00 14 3 Norte 12 Este 0 -- -- 51
2019-03-31 21:00:00 14.5 8 Este 15 Este 0 -- -- 49
2019-03-31 20:00:00 15.8 7 Este 17 Este 0 -- -- 47
2019-03-31 19:00:00 16.8 8 Este 17 Este 0 -- -- 45
2019-03-31 18:00:00 17.5 8 Este 16 Este 0 -- -- 45
2019-03-31 17:00:00 19.3 6 Nordeste 17 Este 0 -- -- 41
2019-03-31 16:00:00 20.4 8 Sudeste 23 Sudeste 0 -- -- 38
2019-03-31 15:00:00 20.1 4 Este 18 Sudeste 0 -- -- 40
2019-03-31 14:00:00 19 8 Este 15 Este 0 -- -- 43
2019-03-31 13:00:00 18.1 4 Este 12 Sudeste 0 -- -- 45
2019-03-31 12:00:00 16.6 7 Sudeste 10 Sudeste 0 -- -- 56
2019-03-31 11:00:00 13.7 3 Oeste 6 Sudeste 0 -- -- 60
2019-03-31 10:00:00 11.1 2 Este 6 Sudeste 0 -- -- 71
2019-03-31 09:00:00 7.9 -- -- -- -- 0 -- -- 75
2019-03-31 08:00:00 7.7 3 Este 9 Este 0 -- -- 73
2019-03-31 07:00:00 8.6 3 Este 14 Noroeste 0 -- -- 69
2019-03-31 06:00:00 11.2 8 Noroeste 20 Oeste 0 -- -- 59
2019-03-31 05:00:00 12.2 10 Oeste 18 Oeste 0 -- -- 53
2019-03-31 03:00:00 12.4 6 Noroeste 14 Sudeste 0 -- -- 49
2019-03-31 01:00:00 11.9 6 Noroeste 13 Noroeste 0 -- -- 57
2019-03-31 00:00:00 12.3 4 Noroeste 6 Noroeste 0 -- -- 52
2019-03-30 23:00:00 11.6 5 Noroeste 9 Oeste 0 -- -- 55
2019-03-30 22:00:00 13.1 5 Noroeste 11 Oeste 0 -- -- 50
2019-03-30 21:00:00 15.7 3 Noroeste 10 Este 0 -- -- 40
2019-03-30 20:00:00 16.8 4 Este 12 Sudeste 0 -- -- 39
2019-03-30 19:00:00 18.3 4 Sudeste 18 Sudeste 0 -- -- 37
2019-03-30 18:00:00 19.2 12 Sudeste 23 Sudeste 0 -- -- 36
2019-03-30 17:00:00 19.7 15 Sudeste 26 Este 0 -- -- 35
2019-03-30 16:00:00 20.3 15 Sudeste 26 Sudeste 0 -- -- 37
2019-03-30 15:00:00 20.3 15 Sudeste 28 Sudeste 0 -- -- 37
2019-03-30 14:00:00 19.4 18 Sudeste 30 Este 0 -- -- 38
2019-03-30 13:00:00 19.2 15 Sudeste 35 Sudeste 0 -- -- 40
2019-03-30 12:00:00 17.5 22 Sudeste 37 Sudeste 0 -- -- 43
2019-03-30 11:00:00 16.2 21 Sudeste 40 Sudeste 0 -- -- 43
2019-03-30 10:00:00 15.1 7 Sur 25 Sudeste 0 -- -- 48
2019-03-30 09:00:00 13 7 Sur 26 Oeste 0 -- -- 48
2019-03-30 08:00:00 11.2 15 Oeste 25 Oeste 0 -- -- 49
2019-03-30 07:00:00 10.9 14 Oeste 24 Sudoeste 0 -- -- 49
2019-03-30 06:00:00 11.5 11 Oeste 39 Sudeste 0 -- -- 46
2019-03-30 05:00:00 12.1 7 Oeste 21 Sur 0 -- -- 43
2019-03-30 04:00:00 13.2 17 Sudeste 37 Sudeste 0 -- -- 38
2019-03-30 03:00:00 13.7 12 Sudeste 41 Sudeste 0 -- -- 40
2019-03-30 02:00:00 14.1 19 Sudeste 42 Este 0 -- -- 41
2019-03-30 01:00:00 14.1 6 Sudoeste 49 Sudeste 0 -- -- 45
2019-03-30 00:00:00 15 12 Sur 32 Sudeste 0 -- -- 44
2019-03-29 23:00:00 15.4 10 Este 37 Sudeste 0 -- -- 44
2019-03-29 22:00:00 16 8 Sudeste 29 Sudeste 0 -- -- 39
2019-03-29 21:00:00 16.4 10 Sudeste 26 Este 0 -- -- 37
2019-03-29 20:00:00 17.3 21 Sudeste 35 Sudeste 0 -- -- 35
2019-03-29 19:00:00 18.2 8 Este 34 Este 0 -- -- 32
2019-03-29 18:00:00 19 25 Sudeste 39 Este 0 -- -- 32
2019-03-29 17:00:00 20 14 Sudeste 28 Sudeste 0 -- -- 35
2019-03-29 16:00:00 20.1 18 Sudeste 35 Sudeste 0 -- -- 35
2019-03-29 15:00:00 20.1 20 Sudeste 33 Sudeste 0 -- -- 36
2019-03-29 14:00:00 19.7 15 Sudeste 33 Sudeste 0 -- -- 39
2019-03-29 13:00:00 18.4 19 Sudeste 33 Sudeste 0 -- -- 39
2019-03-29 12:00:00 17.3 13 Sudeste 39 Este 0 -- -- 42
2019-03-29 11:00:00 16.2 10 Sur 19 Sur 0 -- -- 46
2019-03-29 10:00:00 12.1 5 Oeste 15 Noroeste 0 -- -- 57
2019-03-29 09:00:00 5.7 6 Oeste 13 Oeste 0 -- -- 97
2019-03-29 08:00:00 2.1 3 Oeste 6 Oeste 0 -- -- 100
2019-03-29 07:00:00 1.9 0 Calma 5 Noroeste 0 -- -- 99
2019-03-29 06:00:00 1.8 3 Oeste 6 Sudoeste 0 -- -- 98
2019-03-29 05:00:00 2.4 3 Oeste 4 Oeste 0 -- -- 97
2019-03-29 04:00:00 2.9 4 Noroeste 5 Noroeste 0 -- -- 96
2019-03-29 03:00:00 3.3 3 Noroeste 5 Oeste 0 -- -- 95
2019-03-29 02:00:00 4 4 Oeste 5 Noroeste 0 -- -- 93
2019-03-29 01:00:00 4.6 3 Sudoeste 6 Sudoeste 0 -- -- 91
2019-03-29 00:00:00 5.3 4 Oeste 7 Oeste 0 -- -- 89
2019-03-28 23:00:00 6.8 3 Sudeste 6 Oeste 0 -- -- 82
2019-03-28 22:00:00 7.6 3 Sudeste 12 Este 0 -- -- 84
2019-03-28 21:00:00 8.5 6 Nordeste 12 Este 0 -- -- 79
2019-03-28 20:00:00 9.8 5 Oeste 13 Nordeste 0 -- -- 63
2019-03-28 19:00:00 11.7 8 Nordeste 17 Este 0 -- -- 62
2019-03-28 18:00:00 13.3 10 Este 23 Sudeste 0 -- -- 56
2019-03-28 17:00:00 14.4 13 Este 26 Este 0 -- -- 55
2019-03-28 16:00:00 15.3 7 Sudeste 26 Este 0 -- -- 55
2019-03-28 15:00:00 15.7 10 Este 28 Este 0 -- -- 53
2019-03-28 14:00:00 15.2 11 Este 30 Este 0 -- -- 58
2019-03-28 13:00:00 15.3 5 Noroeste 19 Sudeste 0 -- -- 56
2019-03-28 12:00:00 15.1 9 Este 21 Este 0 -- -- 66
2019-03-28 11:00:00 12.9 9 Este 18 Sudeste 0 -- -- 71
2019-03-28 10:00:00 10.9 6 Sudeste 12 Sur 0 -- -- 80
2019-03-28 09:00:00 7.6 4 Sudeste 8 Este 0 -- -- 95
2019-03-28 08:00:00 5.1 3 Este 4 Este 0 -- -- 96
2019-03-28 07:00:00 5 0 Calma 4 Oeste 0 -- -- 95
2019-03-28 06:00:00 4.7 -- -- -- -- 0 -- -- 94
2019-03-28 05:00:00 4.9 0 Calma 5 Noroeste 0 -- -- 92
2019-03-28 04:00:00 5.3 3 Este 5 Sudeste 0 -- -- 90
2019-03-28 03:00:00 5.9 0 Calma 4 Este 0 -- -- 90
2019-03-28 02:00:00 5.2 2 Este 5 Norte 0 -- -- 90
2019-03-28 01:00:00 5.2 0 Calma 8 Noroeste 0 -- -- 89
2019-03-28 00:00:00 5.8 2 Oeste 4 Oeste 0 -- -- 86
2019-03-27 23:00:00 6.7 3 Sudeste 5 Este 0 -- -- 80
2019-03-27 22:00:00 7.5 0 Calma 5 Sudoeste 0 -- -- 77
2019-03-27 21:00:00 8.2 0 Calma 5 Este 0 -- -- 75
2019-03-27 20:00:00 8.3 4 Nordeste 23 Noroeste 0 -- -- 73
2019-03-27 19:00:00 9.6 9 Norte 22 Noroeste 0 -- -- 63
2019-03-27 18:00:00 12.9 5 Oeste 27 Noroeste 0 -- -- 50
2019-03-27 17:00:00 13.9 10 Noroeste 20 Oeste 0 -- -- 42
2019-03-27 16:00:00 15.2 5 Noroeste 18 Este 0 -- -- 38
2019-03-27 15:00:00 15.4 8 Nordeste 22 Norte 0 -- -- 39
2019-03-27 14:00:00 15 7 Norte 28 Este 0 -- -- 44
2019-03-27 13:00:00 14.3 11 Sudeste 20 Este 0 -- -- 51
2019-03-27 12:00:00 13 13 Sudeste 23 Este 0 -- -- 57
2019-03-27 11:00:00 11 8 Este 15 Sudeste 0 -- -- 69
2019-03-27 10:00:00 8.2 5 Sudeste 9 Sudeste 0 -- -- 77
2019-03-27 09:00:00 4.8 3 Sudeste 6 Sudeste 0 -- -- 96
2019-03-27 08:00:00 2.3 0 Calma 4 Oeste 0 -- -- 100
2019-03-27 07:00:00 1.1 3 Oeste 5 Sudoeste 0 -- -- 98
2019-03-27 06:00:00 1.6 3 Oeste 6 Noroeste 0 -- -- 97
2019-03-27 05:00:00 2.1 0 Calma 6 Noroeste 0 -- -- 97
2019-03-27 04:00:00 2.3 3 Oeste 5 Noroeste 0 -- -- 96
2019-03-27 03:00:00 2.9 3 Noroeste 5 Noroeste 0 -- -- 93
2019-03-27 02:00:00 3.9 2 Norte 6 Noroeste 0 -- -- 92
2019-03-27 01:00:00 4.5 2 Oeste 8 Noroeste 0 -- -- 89
2019-03-27 00:00:00 5 3 Sudeste 5 Oeste 0 -- -- 85